createdAt,value
2019-02-27T00:05:17.302Z,4.45
2019-02-27T00:08:06.090Z,4.68
2019-02-27T00:10:54.919Z,4.86
2019-02-27T00:13:44.122Z,4.99
2019-02-27T00:19:31.105Z,4.98
2019-02-27T00:22:28.125Z,4.95
2019-02-27T00:25:16.943Z,3.45
2019-02-27T00:28:05.749Z,4.98
2019-02-27T00:30:54.555Z,3.42
2019-02-27T00:33:43.353Z,4.86
2019-02-27T00:36:32.164Z,4.67
2019-02-27T00:39:20.969Z,4.71
2019-02-27T00:42:09.785Z,4.74
2019-02-27T00:44:58.578Z,4.48
2019-02-27T00:47:47.390Z,2.88
2019-02-27T00:50:29.432Z,4.31
2019-02-27T00:53:18.248Z,4.18
2019-02-27T00:56:07.048Z,4.24
2019-02-27T00:58:59.885Z,4.13
2019-02-27T01:01:47.517Z,4.38
2019-02-27T01:04:36.956Z,2.68
2019-02-27T01:07:25.771Z,4.10
2019-02-27T01:10:14.643Z,4.02
2019-02-27T01:13:03.465Z,3.88
2019-02-27T01:15:52.274Z,3.72
2019-02-27T01:18:41.078Z,2.20
2019-02-27T01:21:29.881Z,3.85
2019-02-27T01:24:18.724Z,3.83
2019-02-27T01:27:07.519Z,3.88
2019-02-27T01:29:56.332Z,3.90
2019-02-27T01:32:45.124Z,3.93
2019-02-27T01:35:33.949Z,3.76
2019-02-27T01:38:22.741Z,3.92
2019-02-27T01:41:11.561Z,3.98
2019-02-27T01:44:00.359Z,4.05
2019-02-27T01:46:49.179Z,4.14
2019-02-27T01:49:37.988Z,4.04
2019-02-27T01:52:19.331Z,4.08
2019-02-27T01:55:08.185Z,4.05
2019-02-27T01:57:57.059Z,3.99
2019-02-27T02:00:45.950Z,4.01
2019-02-27T02:06:44.138Z,3.90
2019-02-27T02:09:55.242Z,3.87
2019-02-27T02:16:38.886Z,2.22
2019-02-27T02:19:48.852Z,3.71
2019-02-27T02:23:00.050Z,3.54
2019-02-27T02:26:09.789Z,3.35
2019-02-27T02:29:37.279Z,1.89
2019-02-27T02:33:04.796Z,1.86
2019-02-27T02:36:32.310Z,3.63
2019-02-27T02:39:59.818Z,3.39
2019-02-27T02:43:27.311Z,2.74
2019-02-27T02:46:54.826Z,3.15
2019-02-27T02:50:04.580Z,3.15
2019-02-27T02:53:04.655Z,3.03
2019-02-27T02:56:32.144Z,2.78
2019-02-27T03:00:00.919Z,2.80
2019-02-27T03:03:10.846Z,1.79
2019-02-27T03:06:38.351Z,2.57
2019-02-27T03:09:48.086Z,3.05
2019-02-27T03:12:57.848Z,1.69
2019-02-27T03:16:25.354Z,2.24
2019-02-27T03:19:52.847Z,1.53
2019-02-27T03:23:20.376Z,3.12
2019-02-27T03:26:30.073Z,3.14
2019-02-27T03:29:39.806Z,3.17
2019-02-27T03:32:49.580Z,3.20
2019-02-27T03:36:17.138Z,3.10
2019-02-27T03:39:44.631Z,3.02
2019-02-27T03:42:54.402Z,3.04
2019-02-27T03:46:06.272Z,3.01
2019-02-27T03:49:15.620Z,2.94
2019-02-27T03:52:23.501Z,2.96
2019-02-27T03:55:51.014Z,2.97
2019-02-27T03:59:05.515Z,1.47
2019-02-27T04:02:12.191Z,2.73
2019-02-27T04:05:21.987Z,2.17
2019-02-27T04:08:31.751Z,2.36
2019-02-27T04:11:20.595Z,0.75
2019-02-27T04:14:30.385Z,2.49
2019-02-27T04:17:40.104Z,2.39
2019-02-27T04:20:28.929Z,2.33
2019-02-27T04:23:17.759Z,2.37
2019-02-27T04:26:06.760Z,1.29
2019-02-27T04:28:57.097Z,2.21
2019-02-27T04:31:45.911Z,2.21
2019-02-27T04:34:34.735Z,2.32
2019-02-27T04:37:23.538Z,1.37
2019-02-27T04:40:12.342Z,2.33
2019-02-27T04:43:01.154Z,2.31
2019-02-27T04:45:49.963Z,2.26
2019-02-27T04:48:38.810Z,1.88
2019-02-27T04:51:27.609Z,1.88
2019-02-27T04:54:09.314Z,2.00
2019-02-27T04:56:58.194Z,1.01
2019-02-27T04:59:47.009Z,2.23
2019-02-27T05:02:35.836Z,2.21
2019-02-27T05:05:24.623Z,0.48
2019-02-27T05:08:13.443Z,2.11
2019-02-27T05:11:02.247Z,0.25
2019-02-27T05:16:47.193Z,0.56
2019-02-27T05:19:37.251Z,2.22
2019-02-27T05:22:26.782Z,2.20
2019-02-27T05:25:16.775Z,0.42
2019-02-27T05:28:05.595Z,2.36
2019-02-27T05:30:54.386Z,0.54
2019-02-27T05:33:43.210Z,2.38
2019-02-27T05:36:32.398Z,0.75
2019-02-27T05:39:22.552Z,2.10
2019-02-27T05:42:13.124Z,1.96
2019-02-27T05:45:01.908Z,1.95
2019-02-27T05:47:50.727Z,0.34
2019-02-27T05:50:39.536Z,2.08
2019-02-27T05:53:22.109Z,2.07
2019-02-27T05:56:09.797Z,2.08
2019-02-27T05:58:58.625Z,2.05
2019-02-27T06:01:47.421Z,1.92
2019-02-27T06:04:36.241Z,1.89
2019-02-27T06:07:25.068Z,1.79
2019-02-27T06:10:34.786Z,1.83
2019-02-27T06:13:23.656Z,0.13
2019-02-27T06:16:12.450Z,1.82
2019-02-27T06:19:01.280Z,1.71
2019-02-27T06:21:50.089Z,1.67
2019-02-27T06:24:38.905Z,0.27
2019-02-27T06:27:27.727Z,1.67
2019-02-27T06:30:35.852Z,1.71
2019-02-27T06:33:24.685Z,1.65
2019-02-27T06:36:13.482Z,0.01
2019-02-27T06:41:56.813Z,2.01
2019-02-27T06:44:45.631Z,2.10
2019-02-27T06:47:35.543Z,2.21
2019-02-27T06:50:25.489Z,2.34
2019-02-27T06:53:08.551Z,2.39
2019-02-27T06:55:57.365Z,2.47
2019-02-27T06:58:47.616Z,2.62
2019-02-27T07:01:36.975Z,2.63
2019-02-27T07:04:26.891Z,2.78
2019-02-27T07:07:16.318Z,2.87
2019-02-27T07:10:26.022Z,1.49
2019-02-27T07:13:14.858Z,2.81
2019-02-27T07:16:03.718Z,1.26
2019-02-27T07:18:52.533Z,2.40
2019-02-27T07:21:41.365Z,3.13
2019-02-27T07:24:30.586Z,3.21
2019-02-27T07:27:20.675Z,3.38
2019-02-27T07:30:28.823Z,3.56
2019-02-27T07:33:17.632Z,3.67
2019-02-27T07:36:06.435Z,3.79
2019-02-27T07:38:57.480Z,3.42
2019-02-27T07:41:45.765Z,3.65
2019-02-27T07:44:35.136Z,3.95
2019-02-27T07:50:33.326Z,4.29
2019-02-27T07:53:17.651Z,4.53
2019-02-27T07:56:06.095Z,3.16
2019-02-27T07:58:54.884Z,3.34
2019-02-27T08:01:44.267Z,5.00
2019-02-27T08:04:34.222Z,5.13
2019-02-27T08:07:23.038Z,4.23
2019-02-27T08:10:31.171Z,5.46
2019-02-27T08:13:19.989Z,5.56
2019-02-27T08:16:08.824Z,5.61
2019-02-27T08:18:57.623Z,5.67
2019-02-27T08:21:46.429Z,5.91
2019-02-27T08:27:29.360Z,6.17
2019-02-27T08:30:37.502Z,4.93
2019-02-27T08:33:26.301Z,6.54
2019-02-27T08:36:15.124Z,6.66
2019-02-27T08:42:18.755Z,5.31
2019-02-27T08:45:28.479Z,7.14
2019-02-27T08:48:18.069Z,5.98
2019-02-27T08:51:08.835Z,7.27
2019-02-27T08:53:51.546Z,7.41
2019-02-27T08:56:40.795Z,7.56
2019-02-27T08:59:29.622Z,7.64
2019-02-27T09:02:18.438Z,7.31
2019-02-27T09:05:28.139Z,7.88
2019-02-27T09:08:16.962Z,7.94
2019-02-27T09:11:06.806Z,8.25
2019-02-27T09:13:56.284Z,8.54
2019-02-27T09:16:45.098Z,7.79
2019-02-27T09:19:33.896Z,8.90
2019-02-27T09:22:22.725Z,9.16
2019-02-27T09:25:31.688Z,9.30
2019-02-27T09:28:20.478Z,9.57
2019-02-27T09:31:09.276Z,9.79
2019-02-27T09:33:58.470Z,9.97
2019-02-27T09:36:49.111Z,8.76
2019-02-27T09:39:37.799Z,10.28
2019-02-27T09:42:26.596Z,10.40
2019-02-27T09:45:35.524Z,10.37
2019-02-27T09:48:25.738Z,10.87
2019-02-27T09:51:14.554Z,11.17
2019-02-27T09:54:03.369Z,11.40
2019-02-27T09:56:52.184Z,11.62
2019-02-27T09:59:40.992Z,12.05
2019-02-27T10:02:48.837Z,12.29
2019-02-27T10:12:00.641Z,11.82
2019-02-27T10:14:50.267Z,13.35
2019-02-27T10:17:41.146Z,13.52
2019-02-27T10:20:30.641Z,13.90
2019-02-27T10:23:19.446Z,13.99
2019-02-27T10:26:08.273Z,14.16
2019-02-27T10:28:57.364Z,14.26
2019-02-27T10:31:46.159Z,14.53
2019-02-27T10:34:36.263Z,14.79
2019-02-27T10:37:25.540Z,14.19
2019-02-27T10:40:35.332Z,15.18
2019-02-27T10:43:24.157Z,15.38
2019-02-27T10:46:06.023Z,15.56
2019-02-27T10:48:55.396Z,15.91
2019-02-27T10:51:45.399Z,15.01
2019-02-27T10:54:34.229Z,16.24
2019-02-27T10:57:23.037Z,16.54
2019-02-27T11:00:50.681Z,15.77
2019-02-27T11:04:00.486Z,17.00
2019-02-27T11:06:49.052Z,17.28
2019-02-27T11:09:38.309Z,17.39
2019-02-27T11:12:29.422Z,17.68
2019-02-27T11:15:41.377Z,18.05
2019-02-27T11:18:30.413Z,18.22
2019-02-27T11:21:19.234Z,18.41
2019-02-27T11:24:08.337Z,17.95
2019-02-27T11:26:57.207Z,18.76
2019-02-27T11:29:46.038Z,18.68
2019-02-27T11:32:34.855Z,19.01
2019-02-27T11:35:25.100Z,17.70
2019-02-27T11:38:14.201Z,19.00
2019-02-27T11:41:03.040Z,19.37
2019-02-27T11:43:52.777Z,19.59
2019-02-27T11:46:38.197Z,19.49
2019-02-27T11:49:25.787Z,20.09
2019-02-27T11:52:14.679Z,20.30
2019-02-27T11:58:18.299Z,20.41
2019-02-27T12:04:03.083Z,20.78
2019-02-27T12:06:51.891Z,21.04
2019-02-27T12:09:40.728Z,21.22
2019-02-27T12:12:29.524Z,21.71
2019-02-27T12:15:43.339Z,21.90
2019-02-27T12:18:32.212Z,22.22
2019-02-27T12:21:20.337Z,22.20
2019-02-27T12:24:09.165Z,22.44
2019-02-27T12:26:57.965Z,22.97
2019-02-27T12:30:05.819Z,23.20
2019-02-27T12:32:56.712Z,23.32
2019-02-27T12:35:45.177Z,23.03
2019-02-27T12:38:34.247Z,23.42
2019-02-27T12:41:23.068Z,22.64
2019-02-27T12:44:11.890Z,23.21
2019-02-27T12:46:53.235Z,23.35
2019-02-27T12:49:42.050Z,24.09
2019-02-27T12:52:30.868Z,24.23
2019-02-27T12:58:35.242Z,23.81
2019-02-27T13:01:24.090Z,24.93
2019-02-27T13:04:16.075Z,25.02
2019-02-27T13:07:03.405Z,23.38
2019-02-27T13:09:52.233Z,24.99
2019-02-27T13:12:41.038Z,24.24
2019-02-27T13:15:30.437Z,25.09
2019-02-27T13:18:19.231Z,25.25
2019-02-27T13:21:08.056Z,25.46
2019-02-27T13:23:56.867Z,25.45
2019-02-27T13:26:45.691Z,25.39
2019-02-27T13:29:34.809Z,24.26
2019-02-27T13:32:26.426Z,25.82
2019-02-27T13:35:14.315Z,26.23
2019-02-27T13:38:03.117Z,26.62
2019-02-27T13:40:51.941Z,26.37
2019-02-27T13:43:33.400Z,25.13
2019-02-27T13:46:22.753Z,26.31
2019-02-27T13:49:13.904Z,26.71
2019-02-27T13:52:03.299Z,25.72
2019-02-27T13:54:52.131Z,26.73
2019-02-27T13:57:40.950Z,27.04
2019-02-27T14:00:53.579Z,27.33
2019-02-27T14:03:41.242Z,27.59
2019-02-27T14:06:30.088Z,27.72
2019-02-27T14:09:19.362Z,27.39
2019-02-27T14:12:08.231Z,28.01
2019-02-27T14:14:57.062Z,28.14
2019-02-27T14:17:45.936Z,28.31
2019-02-27T14:20:34.768Z,28.27
2019-02-27T14:23:24.134Z,28.44
2019-02-27T14:26:12.966Z,28.55
2019-02-27T14:29:01.781Z,28.75
2019-02-27T14:31:50.612Z,27.78
2019-02-27T14:34:39.437Z,28.09
2019-02-27T14:37:28.243Z,28.76
2019-02-27T14:40:41.107Z,28.38
2019-02-27T14:43:28.513Z,28.09
2019-02-27T14:46:11.525Z,28.31
2019-02-27T14:52:08.749Z,28.49
2019-02-27T14:54:59.973Z,29.23
2019-02-27T14:57:51.102Z,28.85
2019-02-27T15:00:40.934Z,28.87
2019-02-27T15:03:30.186Z,28.92
2019-02-27T15:06:00.960Z,28.00
2019-02-27T15:08:57.702Z,28.31
2019-02-27T15:11:40.314Z,27.52
2019-02-27T15:14:31.056Z,28.99
2019-02-27T15:17:20.278Z,27.70
2019-02-27T15:20:31.152Z,28.95
2019-02-27T15:23:19.951Z,27.81
2019-02-27T15:26:08.771Z,28.87
2019-02-27T15:28:57.579Z,28.37
2019-02-27T15:31:46.404Z,28.41
2019-02-27T15:34:35.244Z,28.26
2019-02-27T15:37:24.052Z,28.04
2019-02-27T15:40:33.780Z,27.11
2019-02-27T15:43:22.581Z,27.62
2019-02-27T15:46:04.281Z,27.76
2019-02-27T15:52:21.499Z,27.75
2019-02-27T15:58:39.413Z,27.57
2019-02-27T16:01:29.010Z,26.53
2019-02-27T16:04:21.150Z,25.92
2019-02-27T16:07:11.174Z,25.36
2019-02-27T16:09:59.834Z,24.17
2019-02-27T16:12:48.654Z,23.32
2019-02-27T16:15:56.483Z,23.04
2019-02-27T16:18:45.304Z,22.72
2019-02-27T16:21:34.124Z,22.27
2019-02-27T16:24:22.926Z,20.49
2019-02-27T16:27:11.751Z,21.65
2019-02-27T16:30:00.552Z,21.51
2019-02-27T16:32:50.022Z,21.28
2019-02-27T16:35:32.586Z,21.28
2019-02-27T16:38:21.405Z,20.00
2019-02-27T16:41:10.289Z,20.95
2019-02-27T16:43:59.093Z,20.71
2019-02-27T16:46:44.764Z,20.52
2019-02-27T16:49:31.681Z,20.08
2019-02-27T16:52:20.501Z,20.11
2019-02-27T16:55:28.902Z,18.54
2019-02-27T16:58:17.725Z,19.63
2019-02-27T17:01:29.579Z,19.46
2019-02-27T17:04:17.995Z,19.28
2019-02-27T17:07:26.578Z,18.99
2019-02-27T17:10:37.354Z,18.58
2019-02-27T17:13:26.158Z,17.08
2019-02-27T17:16:15.029Z,16.56
2019-02-27T17:19:03.870Z,17.80
2019-02-27T17:21:52.686Z,16.01
2019-02-27T17:27:50.952Z,16.89
2019-02-27T17:30:39.776Z,16.67
2019-02-27T17:33:28.633Z,15.82
2019-02-27T17:36:17.445Z,15.97
2019-02-27T17:39:06.856Z,15.62
2019-02-27T17:41:55.655Z,15.61
2019-02-27T17:44:44.482Z,15.40
2019-02-27T17:47:28.535Z,15.09
2019-02-27T17:53:31.751Z,14.90
2019-02-27T17:56:20.546Z,14.87
2019-02-27T17:59:09.538Z,14.81
2019-02-27T18:01:58.846Z,14.50
2019-02-27T18:04:53.034Z,14.37
2019-02-27T18:07:40.270Z,14.05
2019-02-27T18:10:30.349Z,12.89
2019-02-27T18:16:18.303Z,13.80
2019-02-27T18:22:14.873Z,13.58
2019-02-27T18:28:32.944Z,13.58
2019-02-27T18:34:30.457Z,12.60
2019-02-27T18:37:19.792Z,12.68
2019-02-27T18:40:02.349Z,11.12
2019-02-27T18:42:55.330Z,12.40
2019-02-27T18:45:41.702Z,12.19
2019-02-27T18:48:30.534Z,12.45
2019-02-27T18:51:19.341Z,12.28
2019-02-27T18:54:08.161Z,12.30
2019-02-27T18:56:57.559Z,12.23
2019-02-27T18:59:46.364Z,12.43
2019-02-27T19:02:35.198Z,12.51
2019-02-27T19:05:23.995Z,12.57
2019-02-27T19:08:12.820Z,12.55
2019-02-27T19:11:01.623Z,12.52
2019-02-27T19:13:50.455Z,12.41
2019-02-27T19:16:39.584Z,12.33
2019-02-27T19:19:28.426Z,12.30
2019-02-27T19:25:24.984Z,10.60
2019-02-27T19:28:13.857Z,11.95
2019-02-27T19:31:02.670Z,11.87
2019-02-27T19:33:51.518Z,11.83
2019-02-27T19:36:33.399Z,11.79
2019-02-27T19:39:22.592Z,10.82
2019-02-27T19:42:13.224Z,11.49
2019-02-27T19:45:04.202Z,11.37
2019-02-27T19:47:55.771Z,11.03
2019-02-27T19:50:46.358Z,11.07
2019-02-27T19:56:43.157Z,10.56
2019-02-27T19:59:31.998Z,10.26
2019-02-27T20:02:21.605Z,10.30
2019-02-27T20:05:11.447Z,8.81
2019-02-27T20:08:02.378Z,10.20
2019-02-27T20:14:02.591Z,10.01
2019-02-27T20:16:54.874Z,9.73
2019-02-27T20:19:42.297Z,9.50
2019-02-27T20:22:31.199Z,8.16
2019-02-27T20:25:14.141Z,9.75
2019-02-27T20:28:02.995Z,9.78
2019-02-27T20:30:51.883Z,8.44
2019-02-27T20:33:40.695Z,7.94
2019-02-27T20:36:32.419Z,9.50
2019-02-27T20:39:23.085Z,9.52
2019-02-27T20:42:13.223Z,8.68
2019-02-27T20:45:01.177Z,9.59
2019-02-27T20:51:18.451Z,8.23
2019-02-27T20:54:07.242Z,9.50
2019-02-27T20:56:56.070Z,9.40
2019-02-27T20:59:44.855Z,9.29
2019-02-27T21:02:33.738Z,9.16
2019-02-27T21:05:22.907Z,9.06
2019-02-27T21:08:11.722Z,8.92
2019-02-27T21:11:00.554Z,8.93
2019-02-27T21:13:50.212Z,8.94
2019-02-27T21:19:33.884Z,8.79
2019-02-27T21:22:25.252Z,8.72
2019-02-27T21:25:33.292Z,8.67
2019-02-27T21:28:22.108Z,8.61
2019-02-27T21:31:10.912Z,6.92
2019-02-27T21:33:59.728Z,8.56
2019-02-27T21:36:39.622Z,7.15
2019-02-27T21:39:28.489Z,8.32
2019-02-27T21:45:25.003Z,7.99
2019-02-27T21:48:13.825Z,6.21
2019-02-27T21:51:02.656Z,7.71
2019-02-27T21:53:51.481Z,7.57
2019-02-27T21:56:40.293Z,6.55
2019-02-27T21:59:29.093Z,7.18
2019-02-27T22:02:17.908Z,7.30
2019-02-27T22:05:27.623Z,7.42
2019-02-27T22:08:16.429Z,7.55
2019-02-27T22:11:05.230Z,5.97
2019-02-27T22:14:13.069Z,7.39
2019-02-27T22:17:05.029Z,7.36
2019-02-27T22:22:41.552Z,7.19
2019-02-27T22:25:31.201Z,7.16
2019-02-27T22:31:30.154Z,6.51
2019-02-27T22:34:18.951Z,7.03
2019-02-27T22:37:07.762Z,6.60
2019-02-27T22:39:56.579Z,7.08
2019-02-27T22:42:48.126Z,6.96
2019-02-27T22:45:40.092Z,6.90
2019-02-27T22:48:28.673Z,6.64
2019-02-27T22:51:16.994Z,5.21
2019-02-27T22:54:05.805Z,6.76
2019-02-27T22:56:54.619Z,6.76
2019-02-27T22:59:43.425Z,6.62
2019-02-27T23:02:32.310Z,5.87
2019-02-27T23:05:21.183Z,5.89
2019-02-27T23:08:10.066Z,5.81
2019-02-27T23:10:58.940Z,5.63
2019-02-27T23:14:07.657Z,5.64
2019-02-27T23:16:56.527Z,5.66
2019-02-27T23:19:46.842Z,5.73
2019-02-27T23:22:28.895Z,5.77
2019-02-27T23:25:18.446Z,5.01
2019-02-27T23:28:07.243Z,5.74
2019-02-27T23:30:56.059Z,4.14
2019-02-27T23:33:44.857Z,5.63
2019-02-27T23:36:34.005Z,3.86
2019-02-27T23:39:22.804Z,5.39
2019-02-27T23:42:11.932Z,5.31
2019-02-27T23:45:00.753Z,5.13
2019-02-27T23:47:49.642Z,3.67
2019-02-27T23:50:38.446Z,5.12
2019-02-27T23:53:27.819Z,4.92
2019-02-27T23:56:20.321Z,5.46
2019-02-27T23:59:08.324Z,5.42
